MMPR/PVR METAR and TAF weather

Enter ICAO airport designator
Station Type Date Time Source
MMPR METAR 2021/03/01 21:50 UTC NOAA

MMPR 012150Z 21012KT 15SM FEW250 24/20 A2982 RMK 8/001


Station Type Date Time Source
MMPR Decoded METAR 2021/03/01 21:50 UTC NOAA

Puerto Vallarta / Lic, Mexico (MMPR) 20-41N 105-15W
Mar 01, 2021 - 04:50 PM EST / 2021.03.01 2150 UTC
Wind: from the SSW (210 degrees) at 14 MPH (12 KT):0
Visibility: 15 mile(s):0
Sky conditions: mostly clear
Temperature: 75 F (24 C)
Dew Point: 68 F (20 C)
Relative Humidity: 78%
Pressure (altimeter): 29.82 in. Hg (1009 hPa)
ob: MMPR 012150Z 21012KT 15SM FEW250 24/20 A2982 RMK 8/001
cycle: 22

Station Type Date Time Source
MMPR TAF 2021/03/01 18:17 UTC NOAA

TAF MMPR 011710Z 0118/0224 21008KT P6SM SCT250 TX26/0119Z TN16/0213Z
BECMG 0121/0122 23010KT BKN250
FM020300 02005KT P6SM SCT250
FM021800 21008KT P6SM SKC

Example: see airport list